Airfield :
LOGIN :

Register | Disclaimer

   EN    FR    IT 

 










Legend :    VFR   Marginal VFR   IFR   Intensive IFR   Very Intensive IFR
Visi :
Ceiling :
>= 8 km
>= 3000ft
5 to 8 km
1000 to 3000 ft
1500m to 5 km
500 to 1000 ft
800 to 1500m
200 to 500 ft
< 800m
< 200 ft
Symbols :   Thunderstorms  Fog  Heavy snow  Heavy precipitations  Wind > 20 kt
SIGMETs :     Misc.  Thunderstorms  Icing  Turbulence  Mountain Waves  Volcanic Ashes






- Airport Elevation : 1267 ft
- IATA code : CUF


LIMZ - Cuneo Levaldigi

CURRENT METAR :
  • 132320Z AUTO VRB02KT 9999 ///////// 20/19 Q1016

EXPIRED METARs :
  • 132250Z AUTO VRB02KT 9999 VCTS ///////// 20/19 Q1016
  • 132220Z AUTO 22006KT 9999 ///////// 20/19 Q1016
  • 132150Z AUTO 19004KT 9999 ///////// 20/19 Q1016
  • 132120Z AUTO 20005KT 9999 ///////// 20/19 Q1016
  • 132050Z AUTO 31004KT 270V340 9999 ///////// 21/18 Q1016

TAF TAF LIMZ
Valid from the 14 at 00:00 until the 15 at 00:00 UTC


132300Z 1400/1424 VRB05KT 9999 SCT070
TEMPO 1403/1412 4000 TSRA



MET'MAP, your aeronautical weather chart ! - Copyright ORBIFLY December 2007 - Disclaimer

ORBIFLY MET'MAP TEAM :

Programming & Development : Alexandra Zaïnal
Concept & original design : Baudouin d'Aumeries
Assistance for programming : Marc-Olivier Méhu
Technical & hardware support : Manuel Goepfert

Contact : metmap@orbifly.com




SOURCES & CREDITS :

   NOAA